Time;durP1;ratioP1;P1;durP2;ratioP2;P2;SDS_P1;SDS_P2;PMS_P1;PMS_P2;Temp;Humidity;BMP_temperature;BMP_pressure;BME280_temperature;BME280_humidity;BME280_pressure;Samples;Min_cycle;Max_cycle;Signal;HPM_P1;HPM_P2
2022/08/12 22:08:32;;;;;;;1.60;1.50;;;;;;;;;;5112373;27;20570;-92
2022/08/12 22:10:59;;;;;;;1.80;1.40;;;;;;;;;;5111992;28;20452;-94
2022/08/12 22:13:26;;;;;;;1.93;1.83;;;;;;;;;;5109601;28;20466;-94
2022/08/12 22:15:54;;;;;;;2.30;1.70;;;;;;;;;;5112476;28;20432;-93
2022/08/12 22:18:23;;;;;;;1.37;1.27;;;;;;;;;;5112146;28;20841;-93
2022/08/12 22:20:50;;;;;;;2.47;1.50;;;;;;;;;;5112427;28;20458;-94
2022/08/12 22:23:17;;;;;;;3.27;1.47;;;;;;;;;;5111768;28;20938;-91
2022/08/12 22:25:46;;;;;;;2.87;1.93;;;;;;;;;;5111881;28;20815;-91
2022/08/12 22:31:10;;;;;;;1.60;1.50;;;;;;;;;;5112550;28;20968;-92
2022/08/12 22:33:38;;;;;;;2.47;1.90;;;;;;;;;;5110006;28;20460;-95
2022/08/12 22:36:06;;;;;;;1.47;1.33;;;16.70;78.10;;;;;;5110765;28;20456;-93
2022/08/12 22:38:34;;;;;;;2.60;1.83;;;16.60;80.60;;;;;;5117559;28;20462;-91
2022/08/12 22:41:05;;;;;;;2.83;1.50;;;16.60;82.20;;;;;;5117121;28;20478;-91
2022/08/12 22:49:03;;;;;;;3.20;1.40;;;;;;;;;;5120998;28;20431;-92
2022/08/12 22:51:30;;;;;;;1.73;1.20;;;;;;;;;;5115708;28;20424;-92
2022/08/12 22:53:57;;;;;;;1.93;1.27;;;16.30;87.80;;;;;;5114482;28;20416;-92
2022/08/12 22:56:28;;;;;;;1.60;1.50;;;16.20;96.30;;;;;;5119164;28;20456;-92
2022/08/12 22:59:00;;;;;;;1.53;1.43;;;16.10;90.10;;;;;;5119110;28;20459;-91
2022/08/12 23:01:28;;;;;;;2.13;1.70;;;;;;;;;;5116419;28;20439;-92
2022/08/12 23:03:57;;;;;;;1.60;1.50;;;;;;;;;;5117820;28;20455;-91
2022/08/12 23:06:24;;;;;;;2.10;1.20;;;16.00;94.10;;;;;;5120102;28;20484;-91
2022/08/12 23:08:53;;;;;;;3.00;1.70;;;;;;;;;;5121411;28;20428;-90
2022/08/12 23:11:21;;;;;;;1.73;1.63;;;15.90;96.00;;;;;;5119603;28;20467;-90
2022/08/12 23:13:51;;;;;;;2.57;1.77;;;;;;;;;;5121148;28;20963;-91
2022/08/12 23:16:20;;;;;;;4.00;1.60;;;15.90;93.40;;;;;;5121679;28;20538;-93
2022/08/12 23:18:48;;;;;;;1.77;1.30;;;15.90;93.90;;;;;;5113934;28;20928;-92
2022/08/12 23:21:17;;;;;;;1.70;1.60;;;15.80;94.30;;;;;;5097696;28;20805;-91
2022/08/12 23:23:44;;;;;;;1.53;1.43;;;;;;;;;;5093418;28;20436;-94
2022/08/12 23:26:12;;;;;;;1.40;1.20;;;;;;;;;;5094071;28;20429;-94
2022/08/12 23:31:26;;;;;;;2.07;1.60;;;;;;;;;;5097985;28;20479;-92
2022/08/12 23:33:54;;;;;;;1.50;1.40;;;;;;;;;;5096436;28;20451;-92
2022/08/12 23:36:28;;;;;;;2.10;1.33;;;;;;;;;;5096162;28;20500;-93
2022/08/12 23:38:55;;;;;;;2.70;1.47;;;;;;;;;;5098455;28;20445;-92
2022/08/12 23:41:23;;;;;;;2.77;1.70;;;;;;;;;;5098072;28;20449;-92
2022/08/12 23:43:50;;;;;;;5.60;1.73;;;;;;;;;;5097821;28;20453;-92
2022/08/12 23:46:21;;;;;;;2.00;1.57;;;;;;;;;;5096311;28;20505;-91
2022/08/12 23:48:53;;;;;;;2.77;1.80;;;15.30;99.90;;;;;;5097899;28;20571;-93
2022/08/12 23:51:23;;;;;;;2.80;1.43;;;;;;;;;;5097556;28;20453;-93
2022/08/12 23:53:52;;;;;;;3.40;1.60;;;;;;;;;;5095367;28;20461;-92
2022/08/12 23:56:19;;;;;;;3.27;1.73;;;;;;;;;;5094620;28;20453;-91
2022/08/12 23:58:51;;;;;;;1.50;1.40;;;;;;;;;;5094674;28;20456;-94
